Time;durP1;ratioP1;P1;durP2;ratioP2;P2;SDS_P1;SDS_P2;PMS_P1;PMS_P2;Temp;Humidity;BMP_temperature;BMP_pressure;BME280_temperature;BME280_humidity;BME280_pressure;Samples;Min_cycle;Max_cycle;Signal;HPM_P1;HPM_P2
2023/04/30 00:01:18;;;;;;;;;;;;;;;12.75;100.00;99705.13;5021421;28;20661;-46
2023/04/30 00:03:43;;;;;;;;;;;;;;;13.46;100.00;99692.63;5021419;28;20404;-46
2023/04/30 00:06:08;;;;;;;;;;;;;;;14.12;100.00;99644.59;5021701;28;19917;-46
2023/04/30 00:08:34;;;;;;;;;;;;;;;14.66;100.00;99605.47;5021727;28;19913;-46
2023/04/30 00:10:59;;;;;;;;;;;;;;;14.75;100.00;99576.59;5021767;28;20374;-46
2023/04/30 00:13:24;;;;;;;;;;;;;;;13.80;100.00;99576.66;5020929;28;19972;-46
2023/04/30 00:15:50;;;;;;;;;;;;;;;13.08;100.00;99611.88;5021245;28;20590;-46
2023/04/30 00:18:15;;;;;;;;;;;;;;;14.04;100.00;99614.69;5021551;28;19917;-46
2023/04/30 00:20:40;;;;;;;;;;;;;;;14.48;100.00;99584.50;5027246;28;20557;-46
2023/04/30 00:23:05;;;;;;;;;;;;;;;14.32;100.00;99568.72;5020658;28;19968;-46
2023/04/30 00:25:31;;;;;;;;;;;;;;;13.38;100.00;99577.25;5021521;28;19921;-46
2023/04/30 00:27:56;;;;;;;;;;;;;;;13.98;100.00;99579.47;5020828;28;19921;-46
2023/04/30 00:30:21;;;;;;;;;;;;;;;13.94;100.00;99576.16;5021042;28;19917;-46
2023/04/30 00:32:46;;;;;;;;;;;;;;;13.79;100.00;99580.13;5020348;28;19921;-46
2023/04/30 00:35:12;;;;;;;;;;;;;;;13.42;100.00;99595.28;5021211;28;19928;-46
2023/04/30 00:37:37;;;;;;;;;;;;;;;13.67;100.00;99606.47;5021089;28;19920;-46
2023/04/30 00:40:02;;;;;;;;;;;;;;;13.85;100.00;99594.63;5021140;28;20390;-46
2023/04/30 00:42:27;;;;;;;;;;;;;;;13.63;100.00;99589.34;5019940;28;20474;-46
2023/04/30 00:44:53;;;;;;;;;;;;;;;13.37;100.00;99605.78;5021178;28;19921;-46
2023/04/30 00:47:18;;;;;;;;;;;;;;;13.50;100.00;99612.25;5020584;28;19917;-46
2023/04/30 00:49:43;;;;;;;;;;;;;;;12.56;100.00;99624.69;5021219;28;19917;-46
2023/04/30 00:52:09;;;;;;;;;;;;;;;12.23;100.00;99655.78;5019257;28;19917;-46
2023/04/30 00:54:34;;;;;;;;;;;;;;;13.09;100.00;99657.53;5020512;28;19927;-46
2023/04/30 00:56:59;;;;;;;;;;;;;;;12.13;100.00;99657.78;5019065;28;19923;-46
2023/04/30 00:59:24;;;;;;;;;;;;;;;10.89;100.00;99713.25;5018312;28;19925;-46
2023/04/30 01:01:50;;;;;;;;;;;;;;;11.24;100.00;99752.91;5020622;28;19916;-46
2023/04/30 01:04:15;;;;;;;;;;;;;;;11.16;100.00;99772.84;5023793;28;20859;-46
2023/04/30 01:06:42;;;;;;;;;;;;;;;11.76;100.00;99786.06;5022441;28;19921;-46
2023/04/30 01:09:07;;;;;;;;;;;;;;;11.79;100.00;99778.25;5021561;28;19917;-46
2023/04/30 01:11:46;;;;;;;;;;;;;;;11.37;100.00;99799.88;5014001;28;19921;-46
2023/04/30 01:14:12;;;;;;;;;;;;;;;11.78;100.00;99813.53;5018859;28;19921;-47
2023/04/30 01:16:42;;;;;;;;;;;;;;;11.01;100.00;99820.38;5017174;28;19927;-46
2023/04/30 01:19:10;;;;;;;;;;;;;;;11.28;100.00;99842.16;5021670;28;19932;-46
2023/04/30 01:21:35;;;;;;;;;;;;;;;11.89;100.00;99836.53;5015523;28;19920;-46
2023/04/30 01:24:01;;;;;;;;;;;;;;;12.28;100.00;99831.28;5017684;28;19924;-46
2023/04/30 01:26:45;;;;;;;;;;;;;;;12.37;100.00;99805.22;5022295;28;19944;-46
2023/04/30 01:29:11;;;;;;;;;;;;;;;11.22;100.00;99806.22;5018159;28;20003;-47
2023/04/30 01:31:37;;;;;;;;;;;;;;;12.17;100.00;99825.53;5017380;28;19917;-46
2023/04/30 01:34:02;;;;;;;;;;;;;;;12.42;100.00;99831.75;5021222;28;19935;-46
2023/04/30 01:36:30;;;;;;;;;;;;;;;12.64;100.00;99782.09;5026028;28;19921;-46
2023/04/30 01:38:59;;;;;;;;;;;;;;;12.73;100.00;99751.69;5018748;28;19925;-46
2023/04/30 01:41:30;;;;;;;;;;;;;;;13.32;100.00;99704.25;5024114;28;19917;-46
2023/04/30 01:44:13;;;;;;;;;;;;;;;13.43;100.00;99659.06;5021405;28;20282;-46
2023/04/30 01:46:39;;;;;;;;;;;;;;;13.44;100.00;99629.72;5021109;28;20810;-47
2023/04/30 01:49:04;;;;;;;;;;;;;;;13.38;100.00;99613.47;5027001;28;19921;-46
2023/04/30 01:51:31;;;;;;;;;;;;;;;13.27;100.00;99620.72;5022938;28;20409;-46
2023/04/30 01:53:58;;;;;;;;;;;;;;;13.35;100.00;99605.84;5015752;28;19928;-46
2023/04/30 01:56:27;;;;;;;;;;;;;;;12.88;100.00;99608.19;5022702;28;20020;-46
2023/04/30 01:58:52;;;;;;;;;;;;;;;13.03;100.00;99626.72;5013438;28;20044;-46
2023/04/30 02:01:28;;;;;;;;;;;;;;;13.24;100.00;99610.50;5003581;28;20476;-46
2023/04/30 02:03:53;;;;;;;;;;;;;;;12.81;100.00;99618.78;5017533;28;19917;-46
2023/04/30 02:06:18;;;;;;;;;;;;;;;12.91;100.00;99621.03;5018150;28;19948;-46
2023/04/30 02:08:43;;;;;;;;;;;;;;;12.83;100.00;99633.34;5015672;28;19994;-46
2023/04/30 02:11:09;;;;;;;;;;;;;;;13.10;100.00;99625.63;5017829;28;19948;-46
2023/04/30 02:13:35;;;;;;;;;;;;;;;13.23;100.00;99613.09;5019441;28;19921;-46
2023/04/30 02:16:00;;;;;;;;;;;;;;;13.31;100.00;99609.41;5018759;28;20191;-46
2023/04/30 02:18:25;;;;;;;;;;;;;;;13.23;100.00;99608.81;5023216;28;19921;-46
2023/04/30 02:20:50;;;;;;;;;;;;;;;13.16;100.00;99612.50;5018929;28;19917;-45
2023/04/30 02:23:16;;;;;;;;;;;;;;;13.04;100.00;99620.63;5017873;28;19921;-46
2023/04/30 02:25:41;;;;;;;;;;;;;;;12.95;100.00;99627.81;5023416;28;19917;-46
2023/04/30 02:28:06;;;;;;;;;;;;;;;12.30;100.00;99646.97;5018988;28;19925;-46
2023/04/30 02:30:31;;;;;;;;;;;;;;;11.99;100.00;99684.88;5016622;28;19925;-45
2023/04/30 02:32:57;;;;;;;;;;;;;;;12.41;100.00;99692.34;5018752;28;19917;-47
2023/04/30 02:35:22;;;;;;;;;;;;;;;12.35;100.00;99689.00;5018353;28;20360;-46
2023/04/30 02:37:47;;;;;;;;;;;;;;;12.20;100.00;99686.00;5020564;28;19925;-46
2023/04/30 02:40:12;;;;;;;;;;;;;;;11.75;100.00;99704.41;5015137;28;19932;-46
2023/04/30 02:42:38;;;;;;;;;;;;;;;11.80;100.00;99725.78;5020686;28;19925;-45
2023/04/30 02:45:03;;;;;;;;;;;;;;;12.06;100.00;99707.88;5026477;28;20506;-45
2023/04/30 02:47:28;;;;;;;;;;;;;;;12.07;100.00;99704.44;5017946;28;19921;-46
2023/04/30 02:49:53;;;;;;;;;;;;;;;12.34;100.00;99702.00;5017220;28;20375;-46
2023/04/30 02:52:19;;;;;;;;;;;;;;;12.59;100.00;99680.59;5015531;28;20298;-45
2023/04/30 02:54:44;;;;;;;;;;;;;;;12.53;100.00;99654.06;5018302;28;20678;-46
2023/04/30 02:57:09;;;;;;;;;;;;;;;11.97;100.00;99681.47;5018693;28;20259;-45
2023/04/30 02:59:35;;;;;;;;;;;;;;;12.28;100.00;99694.41;5024560;28;19924;-45
2023/04/30 03:02:00;;;;;;;;;;;;;;;12.62;100.00;99665.84;5018505;28;19927;-45
2023/04/30 03:04:25;;;;;;;;;;;;;;;12.75;100.00;99645.69;5020664;28;20070;-45
2023/04/30 03:06:50;;;;;;;;;;;;;;;12.86;100.00;99630.66;5018425;28;20015;-46
2023/04/30 03:09:16;;;;;;;;;;;;;;;12.74;100.00;99628.47;5018682;28;19920;-45
2023/04/30 03:11:42;;;;;;;;;;;;;;;11.93;100.00;99649.75;5021435;28;20311;-45
2023/04/30 03:14:07;;;;;;;;;;;;;;;12.46;100.00;99659.47;5018367;28;19925;-47
2023/04/30 03:16:32;;;;;;;;;;;;;;;12.38;100.00;99641.56;5019334;28;19928;-46
2023/04/30 03:18:57;;;;;;;;;;;;;;;12.02;100.00;99658.94;5016584;28;20158;-45
2023/04/30 03:21:22;;;;;;;;;;;;;;;12.05;100.00;99669.22;5017653;28;20336;-46
2023/04/30 03:23:48;;;;;;;;;;;;;;;12.28;100.00;99666.00;5019603;28;19963;-46
2023/04/30 03:26:13;;;;;;;;;;;;;;;12.12;100.00;99650.09;5014094;28;20324;-46
2023/04/30 03:28:38;;;;;;;;;;;;;;;12.04;100.00;99652.88;5023721;28;19917;-45
2023/04/30 03:31:06;;;;;;;;;;;;;;;11.72;100.00;99685.53;5018120;28;19928;-45
2023/04/30 03:33:32;;;;;;;;;;;;;;;12.17;100.00;99671.44;5016262;28;20189;-45
2023/04/30 03:35:57;;;;;;;;;;;;;;;12.37;100.00;99649.41;5022586;28;20307;-45
2023/04/30 03:38:22;;;;;;;;;;;;;;;12.48;100.00;99635.28;5018366;28;19921;-45
2023/04/30 03:40:47;;;;;;;;;;;;;;;12.39;100.00;99626.94;5018624;28;20136;-48
2023/04/30 03:43:13;;;;;;;;;;;;;;;12.53;100.00;99620.47;5020689;28;20059;-45
2023/04/30 03:45:38;;;;;;;;;;;;;;;12.60;100.00;99609.97;5021688;28;20007;-46
2023/04/30 03:48:03;;;;;;;;;;;;;;;12.58;100.00;99609.16;5019533;28;20075;-45
2023/04/30 03:50:28;;;;;;;;;;;;;;;12.47;100.00;99610.31;5012386;28;20015;-46
2023/04/30 03:52:54;;;;;;;;;;;;;;;12.40;100.00;99613.97;5007832;28;19956;-45
2023/04/30 03:55:19;;;;;;;;;;;;;;;12.39;100.00;99619.19;5022172;28;19943;-46
2023/04/30 03:57:44;;;;;;;;;;;;;;;12.55;100.00;99613.53;5013888;28;19921;-46
2023/04/30 04:00:09;;;;;;;;;;;;;;;13.08;100.00;99576.53;5014521;28;19967;-46
2023/04/30 04:02:35;;;;;;;;;;;;;;;12.26;100.00;99610.97;5019608;28;20145;-46
2023/04/30 04:05:01;;;;;;;;;;;;;;;11.78;100.00;99647.53;5019429;28;19921;-46
2023/04/30 04:07:26;;;;;;;;;;;;;;;10.85;100.00;99713.38;5017061;28;19949;-46
2023/04/30 04:09:51;;;;;;;;;;;;;;;10.53;100.00;99722.63;5015601;28;20184;-46
2023/04/30 04:12:16;;;;;;;;;;;;;;;11.30;100.00;99773.38;5016989;28;19948;-45
2023/04/30 04:14:42;;;;;;;;;;;;;;;10.81;100.00;99768.41;5022918;28;19967;-46
2023/04/30 04:17:07;;;;;;;;;;;;;;;10.42;100.00;99812.97;5019613;28;19964;-46
2023/04/30 04:19:32;;;;;;;;;;;;;;;11.55;100.00;99819.25;5020716;28;19968;-45
2023/04/30 04:21:57;;;;;;;;;;;;;;;11.17;100.00;99807.19;5020217;28;19921;-46
2023/04/30 04:24:25;;;;;;;;;;;;;;;11.79;100.00;99796.31;5025897;28;19944;-46
2023/04/30 04:26:51;;;;;;;;;;;;;;;12.26;100.00;99768.50;5025871;28;20070;-45
2023/04/30 04:29:16;;;;;;;;;;;;;;;11.98;100.00;99761.47;5017349;28;19936;-46
2023/04/30 04:31:41;;;;;;;;;;;;;;;11.37;100.00;99758.59;5019114;28;19950;-45
2023/04/30 04:34:07;;;;;;;;;;;;;;;11.18;100.00;99799.44;5023931;28;19932;-45
2023/04/30 04:36:33;;;;;;;;;;;;;;;12.59;100.00;99789.13;5012540;28;19917;-46
2023/04/30 04:39:01;;;;;;;;;;;;;;;13.71;100.00;99700.41;5015288;28;20323;-46
2023/04/30 04:41:26;;;;;;;;;;;;;;;13.27;100.00;99663.84;5018956;28;19917;-45
2023/04/30 04:43:52;;;;;;;;;;;;;;;12.90;100.00;99637.44;5012217;28;19971;-45
2023/04/30 04:46:17;;;;;;;;;;;;;;;13.92;100.00;99632.34;5023484;28;19948;-46
2023/04/30 04:48:42;;;;;;;;;;;;;;;13.30;100.00;99627.59;5024028;28;19936;-45
2023/04/30 04:51:08;;;;;;;;;;;;;;;13.02;100.00;99646.53;5021670;28;20155;-45
2023/04/30 04:53:33;;;;;;;;;;;;;;;13.33;100.00;99640.41;5028497;28;19924;-45
2023/04/30 04:55:58;;;;;;;;;;;;;;;13.85;100.00;99627.44;5025090;28;19921;-46
2023/04/30 04:58:24;;;;;;;;;;;;;;;13.12;100.00;99623.84;5028723;28;19913;-45
2023/04/30 05:00:49;;;;;;;;;;;;;;;12.49;100.00;99667.94;5021388;28;19929;-47
2023/04/30 05:03:14;;;;;;;;;;;;;;;13.62;100.00;99654.13;5020215;28;20095;-45
2023/04/30 05:05:40;;;;;;;;;;;;;;;14.12;100.00;99639.41;5019554;28;19924;-45
2023/04/30 05:08:05;;;;;;;;;;;;;;;14.05;100.00;99625.00;5025311;28;19988;-45
2023/04/30 05:10:30;;;;;;;;;;;;;;;13.42;100.00;99673.75;5019648;28;19957;-46
2023/04/30 05:12:56;;;;;;;;;;;;;;;13.28;100.00;99656.09;5021640;28;19972;-45
2023/04/30 05:15:21;;;;;;;;;;;;;;;13.12;100.00;99684.16;5019833;28;19925;-45
2023/04/30 05:17:46;;;;;;;;;;;;;;;12.52;100.00;99680.78;5021461;28;20234;-44
2023/04/30 05:20:12;;;;;;;;;;;;;;;13.38;100.00;99696.28;5018110;28;20162;-45
2023/04/30 05:22:37;;;;;;;;;;;;;;;13.15;100.00;99719.41;5021112;28;19921;-45
2023/04/30 05:25:03;;;;;;;;;;;;;;;12.53;100.00;99744.47;5021067;28;19933;-45
2023/04/30 05:27:28;;;;;;;;;;;;;;;11.98;100.00;99761.47;5023604;28;20428;-45
2023/04/30 05:29:53;;;;;;;;;;;;;;;12.66;100.00;99765.66;5025730;28;20425;-46
2023/04/30 05:32:18;;;;;;;;;;;;;;;13.10;100.00;99770.44;5026622;28;19959;-45
2023/04/30 05:34:44;;;;;;;;;;;;;;;12.59;100.00;99779.66;5027123;28;19921;-45
2023/04/30 05:37:11;;;;;;;;;;;;;;;12.16;100.00;99788.53;5024670;28;19960;-45
2023/04/30 05:39:36;;;;;;;;;;;;;;;13.69;100.00;99743.63;5019907;28;19921;-45
2023/04/30 05:42:02;;;;;;;;;;;;;;;13.23;100.00;99707.09;5022525;28;20337;-45
2023/04/30 05:44:29;;;;;;;;;;;;;;;14.74;100.00;99676.03;5018754;28;19921;-46
2023/04/30 05:46:54;;;;;;;;;;;;;;;14.27;100.00;99666.47;5020781;28;20294;-45
2023/04/30 05:49:19;;;;;;;;;;;;;;;14.54;100.00;99651.69;5026499;28;19924;-45
2023/04/30 05:51:45;;;;;;;;;;;;;;;12.66;100.00;99693.31;5027996;28;19928;-45
2023/04/30 05:54:10;;;;;;;;;;;;;;;12.30;100.00;99711.53;5024405;28;19921;-46
2023/04/30 05:56:35;;;;;;;;;;;;;;;12.29;100.00;99770.97;5020647;28;19917;-45
2023/04/30 05:59:00;;;;;;;;;;;;;;;11.82;100.00;99791.09;5024448;28;19920;-45
2023/04/30 06:01:27;;;;;;;;;;;;;;;12.59;100.00;99830.47;5022065;28;19920;-45
2023/04/30 06:03:53;;;;;;;;;;;;;;;13.84;100.00;99783.66;5017725;28;20274;-45
2023/04/30 06:06:18;;;;;;;;;;;;;;;14.39;100.00;99732.56;5032317;28;19962;-45
2023/04/30 06:08:44;;;;;;;;;;;;;;;13.29;100.00;99737.94;5026138;28;19917;-45
2023/04/30 06:11:10;;;;;;;;;;;;;;;12.25;100.00;99744.41;5017493;28;20404;-45
2023/04/30 06:13:35;;;;;;;;;;;;;;;14.36;100.00;99741.28;5017647;28;19940;-46
2023/04/30 06:16:00;;;;;;;;;;;;;;;14.29;100.00;99676.78;5023666;28;19940;-45
2023/04/30 06:18:26;;;;;;;;;;;;;;;12.85;100.00;99719.44;5019588;28;19917;-46
2023/04/30 06:20:51;;;;;;;;;;;;;;;14.47;100.00;99709.81;5016861;28;19929;-45
2023/04/30 06:23:16;;;;;;;;;;;;;;;14.21;100.00;99685.69;5017840;28;19917;-45
2023/04/30 06:25:41;;;;;;;;;;;;;;;15.29;100.00;99668.66;5022982;28;19931;-45
2023/04/30 06:28:08;;;;;;;;;;;;;;;15.02;100.00;99668.84;5017153;28;20054;-45
2023/04/30 06:30:33;;;;;;;;;;;;;;;13.99;100.00;99638.16;5023705;28;20165;-45
2023/04/30 06:32:59;;;;;;;;;;;;;;;14.41;100.00;99658.19;5025599;28;19924;-46
2023/04/30 06:35:24;;;;;;;;;;;;;;;13.29;100.00;99713.84;5019810;28;19996;-45
2023/04/30 06:37:50;;;;;;;;;;;;;;;13.07;100.00;99726.53;5026968;28;20043;-45
2023/04/30 06:40:15;;;;;;;;;;;;;;;13.33;100.00;99742.16;5019983;28;19924;-44
2023/04/30 06:42:40;;;;;;;;;;;;;;;13.84;100.00;99752.59;5019122;28;20545;-45
2023/04/30 06:45:06;;;;;;;;;;;;;;;13.38;100.00;99745.44;5020414;28;20067;-46
2023/04/30 06:47:35;;;;;;;;;;;;;;;14.81;100.00;99716.38;5020526;28;20169;-45
2023/04/30 06:50:00;;;;;;;;;;;;;;;14.23;100.00;99704.63;5021746;28;20480;-45
2023/04/30 06:52:26;;;;;;;;;;;;;;;13.26;100.00;99730.28;5013885;28;19946;-45
2023/04/30 06:54:51;;;;;;;;;;;;;;;13.61;100.00;99741.25;5026652;28;20020;-45
2023/04/30 06:57:16;;;;;;;;;;;;;;;13.97;100.00;99752.13;5023190;28;19929;-45
2023/04/30 06:59:41;;;;;;;;;;;;;;;14.27;100.00;99745.94;5022043;28;19936;-45
2023/04/30 07:02:07;;;;;;;;;;;;;;;14.56;100.00;99737.19;5014778;28;19948;-46
2023/04/30 07:04:32;;;;;;;;;;;;;;;14.21;100.00;99747.03;5021172;28;19944;-45
2023/04/30 07:06:59;;;;;;;;;;;;;;;14.74;100.00;99762.44;5020968;28;19975;-45
2023/04/30 07:09:24;;;;;;;;;;;;;;;14.08;100.00;99746.59;5023547;28;20139;-45
2023/04/30 07:11:50;;;;;;;;;;;;;;;13.79;100.00;99750.16;5024545;28;20745;-45
2023/04/30 07:14:15;;;;;;;;;;;;;;;13.88;100.00;99733.47;5015224;28;19947;-45
2023/04/30 07:16:40;;;;;;;;;;;;;;;14.34;100.00;99716.34;5015898;28;20080;-45
2023/04/30 07:19:05;;;;;;;;;;;;;;;14.61;100.00;99689.44;5014841;28;19933;-45
2023/04/30 07:21:31;;;;;;;;;;;;;;;14.40;100.00;99656.53;5013549;28;20610;-46
2023/04/30 07:23:56;;;;;;;;;;;;;;;13.19;100.00;99715.84;5016240;28;19935;-45
2023/04/30 07:26:23;;;;;;;;;;;;;;;14.85;100.00;99686.81;5015048;28;20516;-45
2023/04/30 07:28:49;;;;;;;;;;;;;;;14.74;100.00;99642.31;5014148;28;19987;-46
2023/04/30 07:31:14;;;;;;;;;;;;;;;14.61;100.00;99649.72;5013163;28;20008;-45
2023/04/30 07:33:39;;;;;;;;;;;;;;;16.33;100.00;99607.94;5013612;28;19917;-46
2023/04/30 07:36:05;;;;;;;;;;;;;;;16.67;100.00;99569.06;5015978;28;20131;-45
2023/04/30 07:38:30;;;;;;;;;;;;;;;15.15;100.00;99600.91;5015024;28;20536;-45
2023/04/30 07:40:56;;;;;;;;;;;;;;;16.31;100.00;99569.03;5012849;28;20259;-45
2023/04/30 07:43:21;;;;;;;;;;;;;;;14.59;100.00;99597.91;5017321;28;19921;-45
2023/04/30 07:45:48;;;;;;;;;;;;;;;14.58;100.00;99606.63;5013799;28;19925;-46
2023/04/30 07:48:13;;;;;;;;;;;;;;;16.46;100.00;99564.84;5015855;28;20228;-46
2023/04/30 07:50:38;;;;;;;;;;;;;;;16.35;100.00;99522.94;5018070;28;19931;-46
2023/04/30 07:53:08;;;;;;;;;;;;;;;14.99;100.00;99580.78;5013753;28;19920;-46
2023/04/30 07:55:33;;;;;;;;;;;;;;;16.46;100.00;99559.66;5014957;28;19921;-46
2023/04/30 07:57:58;;;;;;;;;;;;;;;16.94;100.00;99521.81;5012187;28;19977;-46
2023/04/30 08:00:25;;;;;;;;;;;;;;;16.98;100.00;99564.97;5014444;28;20029;-46
2023/04/30 08:02:50;;;;;;;;;;;;;;;15.41;100.00;99572.09;5013431;28;19931;-46
2023/04/30 08:05:15;;;;;;;;;;;;;;;16.11;100.00;99598.53;5014650;28;19921;-46
2023/04/30 08:07:40;;;;;;;;;;;;;;;16.38;100.00;99590.38;5012510;28;19971;-46
2023/04/30 08:10:06;;;;;;;;;;;;;;;16.98;100.00;99559.78;5014133;28;20440;-46
2023/04/30 08:12:34;;;;;;;;;;;;;;;17.09;100.00;99536.66;5013582;28;19944;-46
2023/04/30 08:15:03;;;;;;;;;;;;;;;16.58;100.00;99538.28;5009274;28;19962;-46
2023/04/30 08:17:29;;;;;;;;;;;;;;;15.67;100.00;99542.44;5020292;28;19948;-46
2023/04/30 08:19:54;;;;;;;;;;;;;;;15.83;100.00;99568.59;5021183;28;20390;-46
2023/04/30 08:22:19;;;;;;;;;;;;;;;16.15;100.00;99579.28;5024287;28;20027;-46
2023/04/30 08:24:45;;;;;;;;;;;;;;;16.48;100.00;99556.06;5020350;28;19921;-46
2023/04/30 08:27:10;;;;;;;;;;;;;;;16.87;100.00;99551.66;5016175;28;19913;-46
2023/04/30 08:29:35;;;;;;;;;;;;;;;16.90;100.00;99551.50;5017541;28;19924;-46
2023/04/30 08:32:01;;;;;;;;;;;;;;;16.39;100.00;99568.66;5016717;28;19917;-46
2023/04/30 08:34:27;;;;;;;;;;;;;;;16.60;100.00;99546.84;5014516;28;19917;-46
2023/04/30 08:36:52;;;;;;;;;;;;;;;17.85;100.00;99525.00;5014758;28;19928;-46
2023/04/30 08:39:17;;;;;;;;;;;;;;;18.35;100.00;99506.56;5016795;28;19920;-46
2023/04/30 08:41:43;;;;;;;;;;;;;;;17.18;100.00;99547.53;5018353;28;19947;-46
2023/04/30 08:44:08;;;;;;;;;;;;;;;16.59;100.00;99547.75;5017150;28;19927;-46
2023/04/30 08:46:34;;;;;;;;;;;;;;;16.66;100.00;99562.16;5016424;28;20053;-47
2023/04/30 08:48:59;;;;;;;;;;;;;;;16.68;100.00;99541.28;5019791;28;19912;-46
2023/04/30 08:51:25;;;;;;;;;;;;;;;16.40;100.00;99541.75;5018753;28;20454;-47
2023/04/30 08:53:50;;;;;;;;;;;;;;;16.60;100.00;99531.22;5017512;28;20004;-47
2023/04/30 08:56:15;;;;;;;;;;;;;;;17.32;100.00;99552.88;5018507;28;20162;-46
2023/04/30 08:58:42;;;;;;;;;;;;;;;16.86;100.00;99539.59;5014184;28;19917;-46
2023/04/30 09:01:08;;;;;;;;;;;;;;;16.65;100.00;99551.81;5018541;28;20454;-46
2023/04/30 09:03:33;;;;;;;;;;;;;;;17.01;100.00;99523.19;5010210;28;19931;-47
2023/04/30 09:05:58;;;;;;;;;;;;;;;17.07;100.00;99533.28;5000281;28;19917;-46
2023/04/30 09:08:45;;;;;;;;;;;;;;;17.32;100.00;99552.88;5016170;28;20149;-47
2023/04/30 09:11:24;;;;;;;;;;;;;;;16.20;100.00;99566.94;5020188;28;20386;-46
2023/04/30 09:13:51;;;;;;;;;;;;;;;17.60;100.00;99528.03;5019264;28;19921;-46
2023/04/30 09:16:16;;;;;;;;;;;;;;;19.64;100.00;99485.16;5023035;28;19921;-47
2023/04/30 09:18:42;;;;;;;;;;;;;;;18.72;100.00;99483.59;5016631;28;19947;-47
2023/04/30 09:21:07;;;;;;;;;;;;;;;17.18;100.00;99542.34;5014543;28;20008;-47
2023/04/30 09:23:33;;;;;;;;;;;;;;;18.29;100.00;99514.75;5013648;28;20005;-47
2023/04/30 09:25:59;;;;;;;;;;;;;;;18.68;100.00;99494.31;5020334;28;19984;-47
2023/04/30 09:28:26;;;;;;;;;;;;;;;18.72;100.00;99474.94;5038313;28;20324;-47
2023/04/30 09:30:51;;;;;;;;;;;;;;;18.76;100.00;99479.91;5019417;28;19963;-47
2023/04/30 09:33:17;;;;;;;;;;;;;;;17.94;100.00;99504.47;5015643;28;20413;-47
2023/04/30 09:35:42;;;;;;;;;;;;;;;18.79;100.00;99487.59;5007358;28;19932;-47
2023/04/30 09:38:07;;;;;;;;;;;;;;;18.76;100.00;99489.50;5021126;28;19947;-47
2023/04/30 09:40:34;;;;;;;;;;;;;;;19.38;100.00;99458.84;5013137;28;19932;-47
2023/04/30 09:42:59;;;;;;;;;;;;;;;18.34;100.00;99517.94;5015215;28;19925;-47
2023/04/30 09:45:24;;;;;;;;;;;;;;;18.68;100.00;99465.59;5015437;28;19932;-47
2023/04/30 09:47:51;;;;;;;;;;;;;;;19.25;100.00;99504.06;5014158;28;19920;-46
2023/04/30 09:50:16;;;;;;;;;;;;;;;18.44;100.00;99501.78;5016092;28;19924;-47
2023/04/30 09:52:46;;;;;;;;;;;;;;;17.75;100.00;99495.97;5012350;28;19943;-47
2023/04/30 09:55:11;;;;;;;;;;;;;;;17.53;100.00;99540.53;5008560;28;19953;-47
2023/04/30 09:57:36;;;;;;;;;;;;;;;19.43;100.00;99455.94;5012000;28;19925;-47
2023/04/30 10:00:01;;;;;;;;;;;;;;;18.96;100.00;99447.44;5013102;28;19997;-47
2023/04/30 10:02:27;;;;;;;;;;;;;;;20.72;100.00;99444.31;4997020;28;19929;-47
2023/04/30 10:04:55;;;;;;;;;;;;;;;20.43;100.00;99426.09;5008354;28;20294;-47
2023/04/30 10:07:20;;;;;;;;;;;;;;;19.15;100.00;99446.34;5012124;28;19933;-47
2023/04/30 10:09:48;;;;;;;;;;;;;;;19.25;100.00;99494.47;5014032;28;19921;-47
2023/04/30 10:12:15;;;;;;;;;;;;;;;18.96;100.00;99447.44;5013272;28;19917;-47
2023/04/30 10:14:44;;;;;;;;;;;;;;;18.95;100.00;99444.91;5013853;28;19976;-47
2023/04/30 10:17:13;;;;;;;;;;;;;;;19.18;100.00;99480.09;5007904;28;19921;-47
2023/04/30 10:19:42;;;;;;;;;;;;;;;19.47;100.00;99435.72;5011710;28;20569;-47
2023/04/30 10:22:07;;;;;;;;;;;;;;;19.49;100.00;99450.34;5006170;28;19925;-47
2023/04/30 10:24:32;;;;;;;;;;;;;;;18.72;100.00;99506.25;5013701;28;19944;-46
2023/04/30 10:26:58;;;;;;;;;;;;;;;20.34;100.00;99419.69;5009184;28;19951;-47
2023/04/30 10:29:24;;;;;;;;;;;;;;;19.21;100.00;99436.38;5012392;28;19921;-47
2023/04/30 10:31:49;;;;;;;;;;;;;;;19.87;100.00;99431.47;5013326;28;20405;-47
2023/04/30 10:34:33;;;;;;;;;;;;;;;19.01;100.00;99447.16;5013450;28;20675;-47
2023/04/30 10:36:59;;;;;;;;;;;;;;;20.98;100.00;99430.31;5011795;28;19921;-47
2023/04/30 10:39:26;;;;;;;;;;;;;;;19.39;100.00;99485.81;5009707;28;19921;-47
2023/04/30 10:41:52;;;;;;;;;;;;;;;20.98;100.00;99479.19;5013275;28;19974;-47
2023/04/30 10:44:23;;;;;;;;;;;;;;;19.74;100.00;99448.84;5019626;28;19956;-47
2023/04/30 10:46:48;;;;;;;;;;;;;;;18.64;100.00;99456.31;5000419;28;20669;-47
2023/04/30 10:49:14;;;;;;;;;;;;;;;20.77;100.00;99424.72;5017352;28;19921;-47
2023/04/30 10:51:50;;;;;;;;;;;;;;;19.09;100.00;99462.38;5015268;28;20390;-47
2023/04/30 10:54:18;;;;;;;;;;;;;;;20.08;100.00;99429.25;5015922;28;19965;-48
2023/04/30 10:56:44;;;;;;;;;;;;;;;20.07;100.00;99440.66;5013277;28;20278;-47
2023/04/30 10:59:09;;;;;;;;;;;;;;;19.27;100.00;99440.38;5020234;28;19933;-47
2023/04/30 11:01:53;;;;;;;;;;;;;;;20.35;100.00;99413.53;5010219;28;19921;-47
2023/04/30 11:04:18;;;;;;;;;;;;;;;20.52;100.00;99391.50;5021935;28;20558;-47
2023/04/30 11:06:55;;;;;;;;;;;;;;;20.41;100.00;99434.09;5021268;28;19924;-48
2023/04/30 11:09:40;;;;;;;;;;;;;;;20.64;100.00;99398.56;5013356;28;20043;-47
2023/04/30 11:12:12;;;;;;;;;;;;;;;20.61;100.00;99376.97;5012211;28;20413;-47
2023/04/30 11:14:41;;;;;;;;;;;;;;;21.59;100.00;99406.88;5013861;28;19921;-47
2023/04/30 11:17:08;;;;;;;;;;;;;;;19.86;100.00;99385.34;5007567;28;20036;-47
2023/04/30 11:19:36;;;;;;;;;;;;;;;19.06;100.00;99437.28;5014053;28;20294;-48
2023/04/30 11:22:04;;;;;;;;;;;;;;;19.36;100.00;99397.19;5010635;28;19917;-47
2023/04/30 11:24:48;;;;;;;;;;;;;;;19.62;100.00;99393.78;5014291;28;19928;-47
2023/04/30 11:27:13;;;;;;;;;;;;;;;20.87;97.99;99346.44;5012971;28;20381;-48
2023/04/30 11:29:39;;;;;;;;;;;;;;;20.12;99.80;99375.00;5013508;28;20105;-48
2023/04/30 11:32:04;;;;;;;;;;;;;;;20.73;100.00;99404.94;5012216;28;19965;-48
2023/04/30 11:34:29;;;;;;;;;;;;;;;21.81;99.49;99342.44;5008592;28;19940;-47
2023/04/30 11:36:56;;;;;;;;;;;;;;;21.04;100.00;99359.16;5012637;28;20008;-47
2023/04/30 11:39:21;;;;;;;;;;;;;;;19.18;100.00;99394.78;5012538;28;19960;-47
2023/04/30 11:41:46;;;;;;;;;;;;;;;21.93;100.00;99326.63;5009151;28;20016;-47
2023/04/30 11:44:22;;;;;;;;;;;;;;;21.28;99.51;99346.16;5000823;28;20012;-47
2023/04/30 11:46:47;;;;;;;;;;;;;;;21.81;100.00;99347.69;5013963;28;19921;-48
2023/04/30 11:49:12;;;;;;;;;;;;;;;20.79;99.18;99343.50;5013408;28;19975;-47
2023/04/30 11:51:38;;;;;;;;;;;;;;;20.55;97.04;99331.13;5012855;28;19928;-47
2023/04/30 11:54:03;;;;;;;;;;;;;;;21.52;94.08;99290.34;5008826;28;19917;-47
2023/04/30 11:56:28;;;;;;;;;;;;;;;20.11;96.31;99348.00;5010690;28;19927;-46
2023/04/30 11:58:54;;;;;;;;;;;;;;;19.63;99.17;99371.94;5010769;28;19925;-47
2023/04/30 12:01:20;;;;;;;;;;;;;;;19.87;100.00;99375.75;5014351;28;19956;-47
2023/04/30 12:03:46;;;;;;;;;;;;;;;20.57;97.16;99329.28;5008970;28;20012;-47
2023/04/30 12:06:11;;;;;;;;;;;;;;;22.28;93.12;99277.75;5013382;28;20096;-47
2023/04/30 12:08:37;;;;;;;;;;;;;;;21.28;95.21;99319.13;5012526;28;20278;-47
2023/04/30 12:11:06;;;;;;;;;;;;;;;21.02;98.91;99337.50;5013708;28;19964;-47
2023/04/30 12:13:31;;;;;;;;;;;;;;;19.06;94.81;99327.66;5010392;28;19917;-48
2023/04/30 12:16:00;;;;;;;;;;;;;;;20.70;98.32;99328.41;5013453;28;20286;-47
2023/04/30 12:18:25;;;;;;;;;;;;;;;21.33;92.85;99276.88;5008443;28;20369;-47
2023/04/30 12:20:51;;;;;;;;;;;;;;;20.66;92.14;99302.47;5017013;28;19928;-47
2023/04/30 12:23:16;;;;;;;;;;;;;;;20.86;94.17;99300.25;5013767;28;20404;-47
2023/04/30 12:25:44;;;;;;;;;;;;;;;22.01;90.23;99264.88;4995602;28;19964;-47
2023/04/30 12:28:10;;;;;;;;;;;;;;;20.58;87.85;99277.78;5013290;28;19917;-47
2023/04/30 12:30:35;;;;;;;;;;;;;;;21.83;87.27;99249.59;5014279;28;19971;-47
2023/04/30 12:33:02;;;;;;;;;;;;;;;20.03;88.48;99287.53;5014344;28;20008;-47